Santa Pola, Spain
Current Conditions -  °F | °C
As of 2:00 AM on Saturday 20 Dec 2014 (Local Time) from LEAL Reporting Station
Clear Clear  
Wind Chill: 55°   Ceiling: Unl
Heat Index: 55°   Visibility: 6mi
Dew Point: 52°   Wind: 1mph
Humidity: 88%   Direction: NA
Pressure: 30.39"   Gusts: NA
Location:  38.19°N, 0.56°W
Report Text: LEAL 200100Z VRB01KT CAVOK 13/11 Q1029 NOSIG
Loading
Personal Weather Stations






























Interactive Weather Map New forecast layout! Learn more

10-Day Weather Forecast

Advertisements
Track Severe Weather on mobile